createdAt,value
2022-12-26T00:00:47.798Z,12.05
2022-12-26T00:10:52.000Z,11.70
2022-12-26T00:20:54.764Z,13.80
2022-12-26T00:30:58.979Z,10.90
2022-12-26T00:41:02.103Z,11.07
2022-12-26T00:51:07.314Z,10.85
2022-12-26T01:01:14.626Z,10.55
2022-12-26T01:11:40.095Z,12.70
2022-12-26T01:21:43.880Z,10.32
2022-12-26T01:31:48.091Z,11.85
2022-12-26T01:41:50.859Z,10.63
2022-12-26T01:52:00.739Z,11.20
2022-12-26T02:02:05.285Z,11.03
2022-12-26T02:12:36.319Z,10.20
2022-12-26T02:23:17.757Z,9.20
2022-12-26T02:33:33.490Z,9.02
2022-12-26T02:43:42.378Z,8.32
2022-12-26T02:54:12.860Z,8.23
2022-12-26T03:04:36.412Z,9.13
2022-12-26T03:14:47.195Z,7.50
2022-12-26T03:25:04.375Z,7.50
2022-12-26T03:35:14.243Z,6.25
2022-12-26T03:45:41.922Z,7.03
2022-12-26T03:56:11.602Z,7.82
2022-12-26T04:06:33.450Z,8.17
2022-12-26T04:16:59.348Z,7.90
2022-12-26T04:27:22.301Z,8.65
2022-12-26T04:37:47.266Z,8.20
2022-12-26T04:48:05.145Z,10.40
2022-12-26T04:58:09.455Z,10.52
2022-12-26T05:08:41.442Z,10.02
2022-12-26T05:19:03.513Z,12.63
2022-12-26T05:29:06.382Z,11.95
2022-12-26T05:39:10.821Z,12.43
2022-12-26T05:49:14.126Z,13.65
2022-12-26T05:59:18.297Z,11.45
2022-12-26T06:09:21.020Z,11.95
2022-12-26T06:19:25.127Z,10.95
2022-12-26T06:29:28.279Z,10.70
2022-12-26T06:39:32.537Z,10.07
2022-12-26T06:49:35.318Z,10.65
2022-12-26T06:59:39.505Z,9.35
2022-12-26T07:09:42.448Z,10.65
2022-12-26T07:19:46.500Z,11.77
2022-12-26T07:29:49.317Z,9.10
2022-12-26T07:39:58.705Z,7.55
2022-12-26T07:50:02.364Z,7.77
2022-12-26T08:00:08.531Z,8.50
2022-12-26T08:10:11.418Z,8.82
2022-12-26T08:20:15.980Z,8.32
2022-12-26T08:30:18.895Z,7.90
2022-12-26T08:40:41.858Z,9.35
2022-12-26T08:50:45.929Z,8.70
2022-12-26T09:00:55.016Z,9.65
2022-12-26T09:11:02.603Z,9.93
2022-12-26T09:21:09.174Z,9.63
2022-12-26T09:31:14.429Z,7.50
2022-12-26T09:41:52.853Z,6.18
2022-12-26T09:51:58.586Z,5.68
2022-12-26T10:02:02.984Z,4.75
2022-12-26T10:12:22.642Z,5.32
2022-12-26T10:22:46.459Z,5.00
2022-12-26T10:32:54.009Z,4.15
2022-12-26T10:43:01.658Z,3.90
2022-12-26T10:53:06.865Z,3.20
2022-12-26T11:03:13.441Z,1.60
2022-12-26T11:13:21.236Z,1.20
2022-12-26T11:23:29.032Z,1.38
2022-12-26T11:33:34.201Z,0.80
2022-12-26T11:43:38.665Z,1.55
2022-12-26T11:53:41.451Z,0.98
2022-12-26T12:03:50.094Z,0.80
2022-12-26T12:14:22.395Z,0.80
2022-12-26T12:24:38.943Z,0.95
2022-12-26T12:35:10.593Z,1.05
2022-12-26T12:45:35.048Z,0.65
2022-12-26T12:55:48.036Z,0.77
2022-12-26T13:05:58.960Z,1.60
2022-12-26T13:16:07.136Z,1.05
2022-12-26T13:26:15.447Z,0.82
2022-12-26T13:36:40.957Z,0.80
2022-12-26T13:46:57.906Z,1.67
2022-12-26T13:57:37.593Z,1.50
2022-12-26T14:07:47.776Z,1.30
2022-12-26T14:18:01.912Z,2.00
2022-12-26T14:28:16.555Z,1.92
2022-12-26T14:38:29.856Z,2.10
2022-12-26T14:48:52.770Z,1.10
2022-12-26T14:59:26.866Z,1.45
2022-12-26T15:10:08.347Z,3.65
2022-12-26T15:20:47.642Z,2.08
2022-12-26T15:31:08.030Z,1.95
2022-12-26T15:41:17.422Z,2.13
2022-12-26T15:51:29.492Z,1.40
2022-12-26T16:01:41.261Z,1.35
2022-12-26T16:11:51.338Z,2.47
2022-12-26T16:22:18.021Z,1.20
2022-12-26T16:32:24.948Z,1.27
2022-12-26T16:42:32.222Z,3.00
2022-12-26T16:52:45.605Z,1.15
2022-12-26T17:02:53.299Z,1.98
2022-12-26T17:12:59.102Z,3.10
2022-12-26T17:23:36.676Z,6.75
2022-12-26T17:33:47.591Z,3.78
2022-12-26T17:43:52.849Z,2.70
2022-12-26T17:53:55.604Z,2.33
2022-12-26T18:03:59.592Z,2.15
2022-12-26T18:14:02.283Z,3.08
2022-12-26T18:24:06.830Z,3.20
2022-12-26T18:34:09.537Z,2.05
2022-12-26T18:44:15.634Z,1.67
2022-12-26T18:54:18.575Z,2.38
2022-12-26T19:04:23.476Z,2.67
2022-12-26T19:14:26.488Z,1.55
2022-12-26T19:24:30.721Z,1.75
2022-12-26T19:34:33.828Z,1.67
2022-12-26T19:44:38.224Z,1.10
2022-12-26T19:54:40.970Z,1.25
2022-12-26T20:04:45.090Z,1.50
2022-12-26T20:14:47.873Z,1.50
2022-12-26T20:24:51.878Z,1.90
2022-12-26T20:34:54.658Z,2.53
2022-12-26T20:44:58.715Z,1.70
2022-12-26T20:55:01.501Z,1.70
2022-12-26T21:05:06.459Z,2.45
2022-12-26T21:15:10.460Z,1.45
2022-12-26T21:25:15.662Z,1.98
2022-12-26T21:35:18.463Z,1.83
2022-12-26T21:45:22.492Z,1.73
2022-12-26T21:56:16.249Z,1.17
2022-12-26T22:06:20.622Z,1.85
2022-12-26T22:16:23.335Z,0.85
2022-12-26T22:26:29.702Z,1.50
2022-12-26T22:36:33.120Z,1.85
2022-12-26T22:46:37.296Z,1.52
2022-12-26T22:56:40.138Z,1.48
2022-12-26T23:06:44.877Z,1.33
2022-12-26T23:16:53.168Z,1.25
2022-12-26T23:27:19.900Z,2.20
2022-12-26T23:37:22.585Z,1.40
2022-12-26T23:47:26.822Z,1.77
2022-12-26T23:57:29.536Z,1.33
